Time;durP1;ratioP1;P1;durP2;ratioP2;P2;SDS_P1;SDS_P2;PMS_P1;PMS_P2;Temp;Humidity;BMP_temperature;BMP_pressure;BME280_temperature;BME280_humidity;BME280_pressure;Samples;Min_cycle;Max_cycle;Signal;HPM_P1;HPM_P2
2021/10/13 00:00:18;;;;;;;4.57;2.47;;;18.80;91.80;;;;;;4197233;28;20114;-72
2021/10/13 00:02:26;;;;;;;4.85;2.33;;;18.70;91.70;;;;;;4219418;28;20051;-71
2021/10/13 00:04:29;;;;;;;4.18;2.30;;;18.70;91.80;;;;;;4221332;28;20043;-72
2021/10/13 00:06:33;;;;;;;4.63;2.20;;;18.70;91.80;;;;;;4214472;28;20079;-74
2021/10/13 00:08:41;;;;;;;6.25;2.22;;;18.70;91.80;;;;;;4219294;28;20052;-76
2021/10/13 00:10:49;;;;;;;5.10;2.03;;;18.70;91.80;;;;;;4213842;28;20413;-71
2021/10/13 00:12:52;;;;;;;5.28;2.13;;;18.70;91.80;;;;;;4226432;28;20052;-71
2021/10/13 00:15:01;;;;;;;4.40;2.17;;;18.70;91.90;;;;;;4219998;28;20056;-72
2021/10/13 00:17:05;;;;;;;4.38;2.15;;;18.60;91.90;;;;;;4215650;28;20056;-73
2021/10/13 00:19:08;;;;;;;5.80;2.28;;;18.60;91.90;;;;;;4225566;28;20055;-75
2021/10/13 00:21:11;;;;;;;5.25;2.60;;;18.60;91.90;;;;;;4214434;28;20052;-74
2021/10/13 00:23:20;;;;;;;6.38;2.25;;;18.60;91.90;;;;;;4220910;28;20055;-71
2021/10/13 00:25:24;;;;;;;6.10;2.30;;;18.60;91.90;;;;;;4219184;28;20428;-72
2021/10/13 00:27:32;;;;;;;4.78;2.00;;;18.60;91.90;;;;;;4215033;28;20101;-70
2021/10/13 00:29:39;;;;;;;4.38;1.90;;;18.50;91.90;;;;;;4225571;28;20052;-71
2021/10/13 00:31:47;;;;;;;6.28;2.40;;;18.50;91.90;;;;;;4213896;28;20052;-76
2021/10/13 00:33:50;;;;;;;3.92;1.98;;;18.50;91.90;;;;;;4221771;28;20055;-72
2021/10/13 00:35:58;;;;;;;3.30;1.90;;;18.50;91.90;;;;;;4217109;28;20062;-72
2021/10/13 00:38:02;;;;;;;3.28;1.92;;;18.50;92.00;;;;;;4215140;28;20051;-72
2021/10/13 00:40:12;;;;;;;4.40;1.90;;;18.50;92.00;;;;;;4225075;28;20052;-72
2021/10/13 00:42:19;;;;;;;3.00;1.88;;;18.50;92.00;;;;;;4213660;28;20060;-72
2021/10/13 00:44:27;;;;;;;6.15;2.35;;;18.50;92.00;;;;;;4223996;28;20058;-72
2021/10/13 00:46:30;;;;;;;3.50;1.90;;;18.50;92.00;;;;;;4215146;28;20052;-77
2021/10/13 00:48:38;;;;;;;4.72;2.22;;;18.50;92.00;;;;;;4215019;28;20052;-71
2021/10/13 00:50:42;;;;;;;4.05;1.90;;;18.50;92.00;;;;;;4223826;28;20044;-71
2021/10/13 00:52:50;;;;;;;4.32;2.15;;;18.50;92.00;;;;;;4214328;28;20056;-72
2021/10/13 00:54:58;;;;;;;4.25;1.60;;;18.40;92.00;;;;;;4227783;28;20056;-72
2021/10/13 00:57:07;;;;;;;4.78;2.05;;;18.50;92.10;;;;;;4215418;28;20129;-76
2021/10/13 00:59:10;;;;;;;6.53;2.22;;;18.40;92.00;;;;;;4218464;28;20048;-72
2021/10/13 01:01:24;;;;;;;3.67;1.90;;;18.40;92.00;;;;;;4232465;28;20148;-75
2021/10/13 01:03:36;;;;;;;4.38;1.92;;;18.40;92.10;;;;;;4231579;28;20074;-73
2021/10/13 01:06:03;;;;;;;4.38;2.08;;;18.40;92.10;;;;;;4225311;28;20051;-71
2021/10/13 01:08:12;;;;;;;4.35;2.03;;;18.40;92.10;;;;;;4213739;28;20063;-76
2021/10/13 01:10:26;;;;;;;4.25;2.25;;;18.40;92.10;;;;;;4223819;28;20116;-72
2021/10/13 01:12:45;;;;;;;3.70;2.05;;;18.40;92.10;;;;;;4215139;28;20048;-76
2021/10/13 01:14:55;;;;;;;2.60;1.80;;;18.40;92.20;;;;;;4218351;28;20465;-72
2021/10/13 01:17:03;;;;;;;2.70;1.77;;;18.40;92.20;;;;;;4220186;28;20056;-71
2021/10/13 01:19:20;;;;;;;4.45;1.83;;;18.40;92.20;;;;;;4215030;28;20063;-72
2021/10/13 01:21:49;;;;;;;5.55;1.90;;;18.40;92.20;;;;;;4225183;28;20078;-71
2021/10/13 01:24:17;;;;;;;4.30;1.90;;;18.40;92.20;;;;;;4213615;28;20052;-77
2021/10/13 01:26:28;;;;;;;5.30;2.13;;;18.30;92.20;;;;;;4225156;28;20059;-71
2021/10/13 01:28:36;;;;;;;3.33;1.98;;;18.30;92.20;;;;;;4214194;28;20086;-71
2021/10/13 01:30:43;;;;;;;5.85;2.20;;;18.30;92.20;;;;;;4225681;28;20389;-71
2021/10/13 01:32:59;;;;;;;3.38;1.80;;;18.30;92.40;;;;;;4222195;28;20052;-71
2021/10/13 01:35:04;;;;;;;4.38;2.17;;;18.30;92.20;;;;;;4218924;28;20076;-74
2021/10/13 01:37:14;;;;;;;3.65;1.65;;;18.30;92.20;;;;;;4235600;28;20081;-75
2021/10/13 01:39:17;;;;;;;4.97;2.00;;;18.30;92.20;;;;;;4234746;28;20056;-73
2021/10/13 01:41:26;;;;;;;5.30;2.25;;;18.30;92.20;;;;;;4222913;28;20064;-72
2021/10/13 01:43:40;;;;;;;4.35;1.98;;;18.20;92.20;;;;;;4234147;28;20129;-74
2021/10/13 01:45:50;;;;;;;3.10;2.13;;;18.20;92.20;;;;;;4228421;28;20089;-75
2021/10/13 01:48:01;;;;;;;2.92;1.90;;;18.30;92.20;;;;;;4206255;28;20113;-71
2021/10/13 01:50:10;;;;;;;3.55;1.70;;;18.20;92.20;;;;;;4229515;28;20055;-74
2021/10/13 01:52:14;;;;;;;3.77;2.40;;;18.20;92.20;;;;;;4224413;28;20112;-73
2021/10/13 01:54:18;;;;;;;3.28;1.70;;;18.20;92.20;;;;;;4212921;28;20407;-71
2021/10/13 01:56:27;;;;;;;3.95;2.13;;;18.20;92.20;;;;;;4221810;28;20055;-71
2021/10/13 01:58:38;;;;;;;3.45;1.88;;;18.20;92.20;;;;;;4217408;28;20488;-77
2021/10/13 02:00:48;;;;;;;4.88;1.80;;;18.20;92.20;;;;;;4215331;28;20396;-71
2021/10/13 02:02:58;;;;;;;5.53;2.72;;;18.20;92.20;;;;;;4217833;28;20048;-74
2021/10/13 02:05:08;;;;;;;5.10;2.10;;;18.20;92.20;;;;;;4229571;28;20052;-75
2021/10/13 02:07:18;;;;;;;5.20;2.15;;;18.20;92.20;;;;;;4224978;28;20056;-75
2021/10/13 02:09:28;;;;;;;5.07;1.85;;;18.20;92.20;;;;;;4212854;28;20436;-71
2021/10/13 02:11:32;;;;;;;3.38;1.70;;;18.20;92.20;;;;;;4215551;28;20097;-76
2021/10/13 02:13:42;;;;;;;5.47;2.10;;;18.20;92.20;;;;;;4220516;28;20074;-71
2021/10/13 02:15:47;;;;;;;3.78;1.90;;;18.10;92.20;;;;;;4212409;28;20052;-76
2021/10/13 02:17:58;;;;;;;3.22;1.73;;;18.10;92.10;;;;;;4216758;28;20055;-71
2021/10/13 02:20:07;;;;;;;5.13;2.20;;;18.10;92.10;;;;;;4228983;28;20060;-77
2021/10/13 02:22:17;;;;;;;4.57;2.10;;;18.10;92.10;;;;;;4222442;28;20113;-71
2021/10/13 02:24:30;;;;;;;4.15;2.03;;;18.10;92.10;;;;;;4223849;28;20055;-71
2021/10/13 02:26:41;;;;;;;3.75;1.90;;;18.10;92.10;;;;;;4227214;28;20056;-72
2021/10/13 02:28:56;;;;;;;4.57;1.48;;;18.10;92.10;;;;;;4217830;28;20461;-71
2021/10/13 02:30:59;;;;;;;2.85;1.80;;;18.10;92.10;;;;;;4228808;28;20393;-70
2021/10/13 02:33:07;;;;;;;4.75;1.88;;;18.10;92.10;;;;;;4224583;28;20051;-70
2021/10/13 02:35:15;;;;;;;4.38;1.80;;;18.10;92.10;;;;;;4212530;28;20416;-71
2021/10/13 02:37:18;;;;;;;3.47;1.70;;;18.10;92.10;;;;;;4214995;28;20051;-70
2021/10/13 02:39:27;;;;;;;4.97;1.60;;;18.10;92.10;;;;;;4220865;28;20484;-73
2021/10/13 02:41:36;;;;;;;3.35;1.67;;;18.10;92.10;;;;;;4212006;28;20062;-72
2021/10/13 02:43:40;;;;;;;4.88;1.95;;;18.00;92.10;;;;;;4197677;28;20078;-71
2021/10/13 02:45:58;;;;;;;4.45;1.73;;;18.10;92.10;;;;;;4211652;28;20632;-71
2021/10/13 02:48:11;;;;;;;3.53;1.75;;;18.00;92.00;;;;;;4217818;28;20048;-75
2021/10/13 02:50:24;;;;;;;2.08;1.52;;;18.00;92.00;;;;;;4216320;28;20105;-72
2021/10/13 02:52:33;;;;;;;5.15;1.90;;;18.00;92.00;;;;;;4213069;28;20052;-76
2021/10/13 02:54:43;;;;;;;4.80;1.80;;;18.00;92.00;;;;;;4223436;28;20489;-73
2021/10/13 02:56:50;;;;;;;3.33;1.80;;;18.00;92.00;;;;;;4211937;28;20056;-72
2021/10/13 02:59:03;;;;;;;6.05;2.10;;;18.00;92.00;;;;;;4215812;28;20052;-72
2021/10/13 03:01:12;;;;;;;2.95;1.27;;;18.00;92.00;;;;;;4227833;28;20062;-76
2021/10/13 03:03:19;;;;;;;3.42;1.70;;;18.00;92.00;;;;;;4224963;28;20105;-71
2021/10/13 03:05:24;;;;;;;4.43;1.90;;;18.00;92.00;;;;;;4220222;28;20056;-72
2021/10/13 03:07:31;;;;;;;3.40;1.98;;;18.00;92.00;;;;;;4228565;28;20389;-73
2021/10/13 03:09:38;;;;;;;3.75;1.70;;;18.00;92.00;;;;;;4224186;28;20059;-70
2021/10/13 03:11:48;;;;;;;5.55;1.77;;;18.00;92.00;;;;;;4214075;28;20052;-71
2021/10/13 03:13:59;;;;;;;3.17;1.80;;;18.00;92.00;;;;;;4221063;28;20085;-70
2021/10/13 03:16:09;;;;;;;3.42;1.52;;;18.00;92.00;;;;;;4220119;28;20059;-71
2021/10/13 03:18:17;;;;;;;2.22;1.27;;;17.90;91.90;;;;;;4215865;28;20055;-72
2021/10/13 03:20:27;;;;;;;3.47;1.65;;;17.90;92.20;;;;;;4225967;28;20059;-74
2021/10/13 03:22:30;;;;;;;4.57;1.75;;;17.90;92.00;;;;;;4214768;28;20052;-71
2021/10/13 03:24:39;;;;;;;3.08;1.70;;;17.90;91.90;;;;;;4223460;28;20113;-72
2021/10/13 03:26:48;;;;;;;3.63;1.92;;;17.90;91.90;;;;;;4217259;28;20052;-75
2021/10/13 03:28:55;;;;;;;4.28;2.00;;;17.90;91.90;;;;;;4220518;28;20492;-71
2021/10/13 03:30:58;;;;;;;3.42;1.60;;;17.90;91.90;;;;;;4221961;28;20055;-73
2021/10/13 03:33:03;;;;;;;3.78;1.80;;;17.90;91.90;;;;;;4233038;28;20048;-73
2021/10/13 03:35:07;;;;;;;2.55;1.45;;;17.90;91.90;;;;;;4231243;28;20048;-76
2021/10/13 03:37:15;;;;;;;3.40;1.70;;;17.90;91.90;;;;;;4217052;28;20048;-78
2021/10/13 03:39:18;;;;;;;3.88;1.70;;;17.90;91.90;;;;;;4199509;28;20072;-75
2021/10/13 03:41:26;;;;;;;3.03;1.50;;;17.90;91.90;;;;;;4224273;28;20095;-71
2021/10/13 03:43:34;;;;;;;3.70;1.80;;;17.90;91.90;;;;;;4214504;28;20056;-72
2021/10/13 03:45:43;;;;;;;5.90;1.77;;;17.90;91.90;;;;;;4227011;28;20561;-76
2021/10/13 03:47:46;;;;;;;4.00;1.63;;;17.90;91.90;;;;;;4214555;28;20103;-70
2021/10/13 03:49:55;;;;;;;3.80;1.60;;;17.90;91.90;;;;;;4217975;28;20060;-70
2021/10/13 03:52:04;;;;;;;2.85;1.88;;;17.80;91.80;;;;;;4222009;28;20409;-72
2021/10/13 03:54:07;;;;;;;4.90;1.75;;;17.80;91.80;;;;;;4214715;28;20412;-72
2021/10/13 03:56:16;;;;;;;3.25;1.80;;;17.90;91.80;;;;;;4219135;28;20512;-77
2021/10/13 03:58:19;;;;;;;4.38;1.67;;;17.80;91.80;;;;;;4231092;28;20085;-71
2021/10/13 04:00:27;;;;;;;3.55;1.80;;;17.80;91.80;;;;;;4209100;28;20056;-75
2021/10/13 04:02:35;;;;;;;3.42;1.60;;;17.80;91.80;;;;;;4219706;28;20142;-72
2021/10/13 04:04:38;;;;;;;3.35;1.50;;;17.80;91.80;;;;;;4215533;28;20055;-71
2021/10/13 04:06:47;;;;;;;2.55;1.52;;;17.80;91.70;;;;;;4225542;28;20063;-70
2021/10/13 04:08:50;;;;;;;2.15;1.30;;;17.80;91.80;;;;;;4214274;28;20055;-70
2021/10/13 04:10:58;;;;;;;2.97;1.48;;;17.80;91.80;;;;;;4221279;28;20047;-72
2021/10/13 04:13:06;;;;;;;3.63;1.77;;;17.80;91.70;;;;;;4200816;28;20087;-72
2021/10/13 04:15:14;;;;;;;2.90;1.48;;;17.80;91.70;;;;;;4215138;28;20081;-71
2021/10/13 04:17:18;;;;;;;4.30;1.38;;;17.80;91.70;;;;;;4225159;28;20060;-70
2021/10/13 04:19:21;;;;;;;3.75;1.83;;;17.80;91.70;;;;;;4213965;28;20462;-77
2021/10/13 04:21:29;;;;;;;5.07;1.67;;;17.80;91.70;;;;;;4222402;28;20048;-71
2021/10/13 04:23:38;;;;;;;2.90;1.35;;;17.80;91.70;;;;;;4216812;28;20124;-72
2021/10/13 04:25:46;;;;;;;3.78;1.60;;;17.80;91.70;;;;;;4215191;28;20056;-72
2021/10/13 04:27:50;;;;;;;2.67;1.40;;;17.80;91.70;;;;;;4225085;28;20056;-71
2021/10/13 04:29:57;;;;;;;5.03;1.40;;;17.80;91.70;;;;;;4214116;28;20067;-71
2021/10/13 04:32:06;;;;;;;4.90;1.77;;;17.80;91.70;;;;;;4224455;28;20101;-73
2021/10/13 04:34:14;;;;;;;2.42;1.45;;;17.80;91.70;;;;;;4214522;28;20059;-71
2021/10/13 04:36:17;;;;;;;6.53;1.95;;;17.70;91.60;;;;;;4215995;28;20056;-69
2021/10/13 04:38:25;;;;;;;4.93;1.80;;;17.70;91.60;;;;;;4222683;28;20447;-72
2021/10/13 04:40:34;;;;;;;6.13;1.77;;;17.70;91.60;;;;;;4213810;28;20059;-73
2021/10/13 04:42:37;;;;;;;4.40;1.60;;;17.70;91.60;;;;;;4225855;28;20063;-70
2021/10/13 04:44:45;;;;;;;4.38;1.50;;;17.70;91.60;;;;;;4213605;28;20056;-71
2021/10/13 04:46:53;;;;;;;3.20;1.50;;;17.70;91.60;;;;;;4218076;28;20058;-70
2021/10/13 04:48:56;;;;;;;6.30;1.73;;;17.70;91.60;;;;;;4220746;28;20125;-70
2021/10/13 04:50:59;;;;;;;4.22;1.90;;;17.70;91.60;;;;;;4213151;28;20051;-71
2021/10/13 04:53:07;;;;;;;2.88;1.33;;;17.70;91.60;;;;;;4218162;28;20056;-72
2021/10/13 04:55:11;;;;;;;3.28;1.73;;;17.70;91.60;;;;;;4230384;28;20051;-77
2021/10/13 04:57:16;;;;;;;2.60;1.30;;;17.70;91.50;;;;;;4224559;28;20407;-72
2021/10/13 04:59:24;;;;;;;4.15;1.70;;;17.70;91.50;;;;;;4223269;28;20047;-70
2021/10/13 05:01:27;;;;;;;3.92;1.60;;;17.70;91.50;;;;;;4229188;28;20066;-71
2021/10/13 05:03:30;;;;;;;5.70;1.55;;;17.70;91.50;;;;;;4218181;28;20435;-69
2021/10/13 05:05:38;;;;;;;4.63;1.67;;;17.70;91.80;;;;;;4230258;28;20113;-70
2021/10/13 05:07:48;;;;;;;3.00;1.33;;;17.60;91.50;;;;;;4222945;28;20643;-72
2021/10/13 05:09:51;;;;;;;5.38;1.52;;;17.70;91.50;;;;;;4224289;28;20124;-71
2021/10/13 05:11:59;;;;;;;4.07;1.50;;;17.60;91.50;;;;;;4228467;28;20125;-70
2021/10/13 05:14:08;;;;;;;2.78;1.60;;;17.70;91.50;;;;;;4218357;28;20104;-78
2021/10/13 05:16:16;;;;;;;4.20;1.92;;;17.60;91.40;;;;;;4229905;28;20101;-71
2021/10/13 05:18:19;;;;;;;3.50;1.60;;;17.60;91.50;;;;;;4221102;28;20052;-72
2021/10/13 05:20:22;;;;;;;3.90;1.83;;;17.60;91.40;;;;;;4225865;28;20044;-70
2021/10/13 05:22:25;;;;;;;6.35;1.90;;;17.60;91.40;;;;;;4228538;28;20064;-74
2021/10/13 05:24:28;;;;;;;3.53;1.45;;;17.60;91.40;;;;;;4199956;28;20044;-70
2021/10/13 05:26:36;;;;;;;2.95;1.55;;;17.60;91.40;;;;;;4229553;28;20074;-71
2021/10/13 05:28:44;;;;;;;4.63;1.98;;;17.60;91.40;;;;;;4220587;28;20064;-70
2021/10/13 05:30:48;;;;;;;4.03;1.73;;;17.60;91.40;;;;;;4225691;28;20413;-70
2021/10/13 05:32:56;;;;;;;5.55;1.90;;;17.60;91.40;;;;;;4227852;28;20082;-73
2021/10/13 05:35:05;;;;;;;4.72;1.80;;;17.60;91.40;;;;;;4218167;28;20051;-71
2021/10/13 05:37:08;;;;;;;3.85;1.60;;;17.60;91.40;;;;;;4229457;28;20060;-71
2021/10/13 05:39:11;;;;;;;5.50;2.00;;;17.60;91.40;;;;;;4219469;28;20117;-69
2021/10/13 05:41:19;;;;;;;3.92;1.75;;;17.60;91.40;;;;;;4227449;28;20066;-72
2021/10/13 05:43:27;;;;;;;3.53;1.75;;;17.60;91.30;;;;;;4226889;28;20047;-72
2021/10/13 05:45:35;;;;;;;6.38;2.00;;;17.50;91.30;;;;;;4219760;28;20047;-76
2021/10/13 05:47:39;;;;;;;5.07;1.90;;;17.60;91.30;;;;;;4229121;28;20427;-71
2021/10/13 05:49:42;;;;;;;5.40;1.98;;;17.50;91.30;;;;;;4217897;28;20488;-71
2021/10/13 05:51:45;;;;;;;7.40;2.00;;;17.60;91.30;;;;;;4228174;28;20047;-72
2021/10/13 05:53:48;;;;;;;3.47;1.85;;;17.50;91.30;;;;;;4226851;28;20063;-72
2021/10/13 05:55:56;;;;;;;6.20;1.90;;;17.50;91.30;;;;;;4219811;28;20052;-75
2021/10/13 05:58:04;;;;;;;6.35;1.88;;;17.50;91.30;;;;;;4229405;28;20104;-72
2021/10/13 06:00:08;;;;;;;5.05;1.90;;;17.50;91.30;;;;;;4224020;28;20051;-74
2021/10/13 06:02:11;;;;;;;6.45;2.22;;;17.50;91.30;;;;;;4212860;28;20128;-72
2021/10/13 06:04:20;;;;;;;5.25;2.13;;;17.50;91.30;;;;;;4215922;28;20416;-74
2021/10/13 06:06:28;;;;;;;5.05;2.10;;;17.50;91.30;;;;;;4230083;28;20059;-72
2021/10/13 06:08:31;;;;;;;8.30;2.53;;;17.50;91.30;;;;;;4229930;28;20496;-71
2021/10/13 06:10:39;;;;;;;3.72;1.83;;;17.50;91.30;;;;;;4218142;28;20044;-73
2021/10/13 06:12:47;;;;;;;5.68;2.20;;;17.50;91.20;;;;;;4230518;28;20055;-74
2021/10/13 06:14:55;;;;;;;5.40;2.10;;;17.50;91.20;;;;;;4224605;28;20044;-75
2021/10/13 06:17:05;;;;;;;7.05;1.80;;;17.50;91.20;;;;;;4224256;28;20108;-72
2021/10/13 06:19:08;;;;;;;5.07;2.25;;;17.50;91.20;;;;;;4228256;28;20056;-71
2021/10/13 06:21:18;;;;;;;8.93;2.20;;;17.50;91.20;;;;;;4217679;28;20047;-72
2021/10/13 06:23:21;;;;;;;4.53;1.77;;;17.50;91.20;;;;;;4211376;28;20051;-76
2021/10/13 06:25:29;;;;;;;9.38;2.25;;;17.50;91.20;;;;;;4203165;28;20494;-71
2021/10/13 06:27:37;;;;;;;15.57;3.30;;;17.40;91.20;;;;;;4208481;28;20056;-73
2021/10/13 06:29:45;;;;;;;8.23;2.28;;;17.40;91.20;;;;;;4210491;28;20118;-72
2021/10/13 06:31:53;;;;;;;7.40;2.38;;;17.50;91.20;;;;;;4200659;28;20113;-75
2021/10/13 06:33:56;;;;;;;9.57;2.38;;;17.40;91.20;;;;;;4212664;28;20048;-72
2021/10/13 06:35:59;;;;;;;9.52;2.20;;;17.50;91.20;;;;;;4210685;28;20048;-72
2021/10/13 06:38:08;;;;;;;7.15;2.35;;;17.50;91.20;;;;;;4198224;28;20057;-73
2021/10/13 06:40:12;;;;;;;8.10;2.50;;;17.40;91.10;;;;;;4196621;28;20074;-72
2021/10/13 06:42:15;;;;;;;11.85;2.40;;;17.40;91.10;;;;;;4206795;28;20044;-71
2021/10/13 06:44:18;;;;;;;7.53;2.35;;;17.40;91.10;;;;;;4195527;28;20048;-73
2021/10/13 06:46:27;;;;;;;10.63;2.33;;;17.40;91.10;;;;;;4206995;28;20454;-75
2021/10/13 06:48:30;;;;;;;7.35;2.75;;;17.40;91.10;;;;;;4201240;28;20049;-75
2021/10/13 06:50:38;;;;;;;7.97;2.78;;;17.40;91.10;;;;;;4202419;28;20048;-71
2021/10/13 06:52:41;;;;;;;12.13;3.30;;;17.40;91.10;;;;;;4204687;28;20052;-71
2021/10/13 06:54:50;;;;;;;7.18;2.60;;;17.40;91.10;;;;;;4215351;28;20483;-71
2021/10/13 06:56:53;;;;;;;10.48;3.40;;;17.40;91.10;;;;;;4204507;28;20110;-71
2021/10/13 06:58:56;;;;;;;8.98;2.40;;;17.40;91.10;;;;;;4213963;28;20047;-73
2021/10/13 07:00:59;;;;;;;9.65;3.13;;;17.40;91.10;;;;;;4213344;28;20051;-75
2021/10/13 07:03:02;;;;;;;14.82;3.10;;;17.40;91.10;;;;;;4204735;28;20048;-71
2021/10/13 07:05:06;;;;;;;8.68;3.10;;;17.40;91.10;;;;;;4215403;28;20063;-71
2021/10/13 07:07:09;;;;;;;6.80;3.03;;;17.40;91.10;;;;;;4205182;28;20060;-73
2021/10/13 07:09:16;;;;;;;6.28;2.95;;;17.40;91.10;;;;;;4213616;28;20051;-72
2021/10/13 07:11:26;;;;;;;6.60;2.80;;;17.40;91.00;;;;;;4212328;28;20048;-75
2021/10/13 07:13:29;;;;;;;6.05;2.53;;;17.40;91.10;;;;;;4205450;28;20048;-70
2021/10/13 07:15:37;;;;;;;7.78;3.53;;;17.40;91.10;;;;;;4215418;28;20048;-72
2021/10/13 07:17:45;;;;;;;8.02;3.42;;;17.40;91.10;;;;;;4213389;28;20121;-73
2021/10/13 07:19:48;;;;;;;11.32;3.50;;;17.40;91.00;;;;;;4198123;28;20053;-71
2021/10/13 07:21:56;;;;;;;6.50;2.90;;;17.40;91.00;;;;;;4203684;28;20060;-73
2021/10/13 07:23:59;;;;;;;9.20;3.28;;;17.40;91.00;;;;;;4209462;28;20059;-72
2021/10/13 07:26:02;;;;;;;7.38;3.42;;;17.40;91.00;;;;;;4232212;28;20047;-74
2021/10/13 07:28:07;;;;;;;10.88;3.67;;;17.40;91.00;;;;;;4229722;28;20052;-75
2021/10/13 07:30:18;;;;;;;11.57;3.83;;;17.40;91.10;;;;;;4214642;28;20059;-73
2021/10/13 07:32:21;;;;;;;10.20;3.70;;;17.40;91.10;;;;;;4225359;28;20056;-72
2021/10/13 07:34:29;;;;;;;15.55;3.75;;;17.40;91.30;;;;;;4232402;28;20055;-73
2021/10/13 07:36:37;;;;;;;10.50;3.40;;;17.40;91.10;;;;;;4237928;28;20047;-74
2021/10/13 07:38:46;;;;;;;11.77;3.75;;;17.40;91.10;;;;;;4231806;28;20048;-70
2021/10/13 07:40:50;;;;;;;;;;;17.40;91.10;;;;;;4224575;28;20113;-74
2021/10/13 07:42:58;;;;;;;11.20;3.72;;;17.40;91.10;;;;;;4226235;28;20400;-72
2021/10/13 07:45:09;;;;;;;10.73;3.40;;;17.40;91.10;;;;;;4221269;28;20052;-75
2021/10/13 07:47:16;;;;;;;10.65;3.45;;;17.50;91.10;;;;;;4215053;28;20052;-75
2021/10/13 07:49:24;;;;;;;10.30;3.72;;;17.50;91.10;;;;;;4225427;28;20622;-73
2021/10/13 07:51:27;;;;;;;12.82;3.28;;;17.40;91.00;;;;;;4214251;28;20657;-74
2021/10/13 07:53:35;;;;;;;10.70;3.33;;;17.50;91.00;;;;;;4223472;28;20461;-73
2021/10/13 07:55:43;;;;;;;11.40;3.50;;;17.50;91.00;;;;;;4216846;28;20052;-72
2021/10/13 07:57:46;;;;;;;10.30;3.72;;;17.50;90.90;;;;;;4214614;28;20040;-72
2021/10/13 07:59:50;;;;;;;10.65;3.50;;;17.40;90.90;;;;;;4225241;28;20063;-73
2021/10/13 08:01:59;;;;;;;12.70;3.47;;;17.50;90.90;;;;;;4213875;28;20071;-75
2021/10/13 08:04:07;;;;;;;13.77;3.47;;;17.50;90.90;;;;;;4224405;28;20051;-72
2021/10/13 08:06:15;;;;;;;9.10;3.65;;;17.50;90.90;;;;;;4215210;28;20056;-72
2021/10/13 08:08:23;;;;;;;8.25;3.58;;;17.50;90.90;;;;;;4199749;28;20052;-71
2021/10/13 08:10:26;;;;;;;8.20;3.30;;;17.50;90.90;;;;;;4223307;28;20055;-71
2021/10/13 08:12:29;;;;;;;11.20;3.53;;;17.50;90.90;;;;;;4214049;28;20052;-73
2021/10/13 08:14:36;;;;;;;9.95;3.60;;;17.50;90.90;;;;;;4226017;28;20047;-72
2021/10/13 08:16:44;;;;;;;10.82;3.55;;;17.50;90.80;;;;;;4196904;28;20048;-75
2021/10/13 08:18:49;;;;;;;8.10;3.30;;;17.50;90.80;;;;;;4217862;28;20156;-75
2021/10/13 08:20:57;;;;;;;10.23;4.00;;;17.50;90.80;;;;;;4222134;28;20056;-71
2021/10/13 08:23:05;;;;;;;10.85;4.13;;;17.50;90.80;;;;;;4214470;28;20132;-72
2021/10/13 08:25:09;;;;;;;16.33;4.78;;;17.60;91.00;;;;;;4218252;28;20453;-72
2021/10/13 08:27:17;;;;;;;15.18;4.93;;;17.60;91.10;;;;;;4230806;28;20052;-73
2021/10/13 08:29:25;;;;;;;17.55;5.50;;;17.60;91.10;;;;;;4224443;28;20056;-75
2021/10/13 08:31:34;;;;;;;14.15;6.18;;;17.70;91.10;;;;;;4224764;28;20059;-73
2021/10/13 08:33:37;;;;;;;24.55;6.60;;;17.70;91.20;;;;;;4229969;28;20048;-73
2021/10/13 08:35:46;;;;;;;17.92;6.78;;;17.70;90.90;;;;;;4216428;28;20044;-74
2021/10/13 08:37:54;;;;;;;14.93;6.15;;;17.80;90.70;;;;;;4230665;28;20055;-73
2021/10/13 08:40:03;;;;;;;18.55;6.30;;;17.80;90.70;;;;;;4222137;28;20060;-74
2021/10/13 08:42:06;;;;;;;14.68;6.03;;;17.80;90.50;;;;;;4226549;28;20059;-72
2021/10/13 08:44:12;;;;;;;12.23;5.35;;;17.80;90.50;;;;;;4229750;28;20052;-74
2021/10/13 08:46:15;;;;;;;17.92;5.50;;;17.80;90.40;;;;;;4201515;28;20048;-75
2021/10/13 08:48:18;;;;;;;17.35;6.28;;;17.90;90.20;;;;;;4231216;28;20097;-73
2021/10/13 08:50:22;;;;;;;19.30;5.90;;;17.90;90.10;;;;;;4219166;28;20044;-72
2021/10/13 08:52:30;;;;;;;20.17;5.45;;;17.90;90.10;;;;;;4227621;28;20052;-74
2021/10/13 08:54:33;;;;;;;14.57;5.75;;;17.90;90.00;;;;;;4229850;28;20044;-72
2021/10/13 08:56:36;;;;;;;11.50;5.20;;;17.90;89.90;;;;;;4219656;28;20439;-72
2021/10/13 08:58:44;;;;;;;16.75;5.13;;;17.90;89.80;;;;;;4231200;28;20051;-73
2021/10/13 09:01:07;;;;;;;13.05;4.88;;;17.90;89.90;;;;;;4221542;28;20056;-74
2021/10/13 09:03:25;;;;;;;13.60;4.63;;;17.90;89.60;;;;;;4229458;28;20056;-75
2021/10/13 09:05:29;;;;;;;12.68;5.10;;;17.90;89.60;;;;;;4225077;28;20059;-72
2021/10/13 09:07:40;;;;;;;10.43;4.63;;;17.90;89.40;;;;;;4223106;28;20044;-72
2021/10/13 09:09:48;;;;;;;11.65;4.68;;;18.00;89.70;;;;;;4227723;28;20132;-74
2021/10/13 09:11:56;;;;;;;12.05;4.70;;;18.00;89.60;;;;;;4224730;28;20055;-73
2021/10/13 09:14:13;;;;;;;17.73;4.60;;;18.00;89.50;;;;;;4212744;28;20117;-72
2021/10/13 09:16:16;;;;;;;11.20;3.78;;;18.10;89.50;;;;;;4221156;28;20048;-72
2021/10/13 09:18:24;;;;;;;17.85;4.65;;;18.10;89.10;;;;;;4216327;28;20055;-74
2021/10/13 09:20:28;;;;;;;12.15;4.53;;;18.10;89.20;;;;;;4214331;28;20047;-72
2021/10/13 09:22:31;;;;;;;16.17;4.70;;;18.00;89.40;;;;;;4224396;28;20063;-72
2021/10/13 09:24:45;;;;;;;10.35;4.18;;;18.00;89.10;;;;;;4212562;28;20052;-72
2021/10/13 09:26:49;;;;;;;13.32;3.83;;;18.00;89.20;;;;;;4222703;28;20499;-72
2021/10/13 09:28:58;;;;;;;9.20;4.00;;;18.00;89.00;;;;;;4214645;28;20055;-73
2021/10/13 09:31:12;;;;;;;11.63;3.85;;;18.00;88.90;;;;;;4214574;28;20052;-73
2021/10/13 09:33:16;;;;;;;13.40;3.63;;;18.10;88.90;;;;;;4221182;28;20113;-73
2021/10/13 09:35:27;;;;;;;10.63;4.05;;;18.10;89.00;;;;;;4212654;28;20056;-73
2021/10/13 09:37:43;;;;;;;11.23;4.18;;;18.10;88.60;;;;;;4217732;28;20105;-74
2021/10/13 09:39:58;;;;;;;7.30;3.08;;;18.10;88.80;;;;;;4229612;28;20059;-72
2021/10/13 09:42:05;;;;;;;19.45;4.65;;;18.10;88.50;;;;;;4221837;28;20156;-74
2021/10/13 09:44:14;;;;;;;11.35;3.42;;;18.10;88.60;;;;;;4225064;28;20080;-73
2021/10/13 09:46:18;;;;;;;13.70;3.22;;;18.10;88.60;;;;;;4227865;28;20048;-72
2021/10/13 09:48:23;;;;;;;10.07;3.38;;;18.00;88.50;;;;;;4217955;28;20494;-75
2021/10/13 09:50:39;;;;;;;8.15;3.78;;;18.00;88.60;;;;;;4229204;28;20071;-71
2021/10/13 09:52:43;;;;;;;13.30;3.65;;;18.00;88.50;;;;;;4218531;28;20052;-73
2021/10/13 09:54:47;;;;;;;9.07;3.63;;;18.00;88.30;;;;;;4227451;28;20151;-72
2021/10/13 09:56:52;;;;;;;9.40;3.42;;;18.00;88.30;;;;;;4226814;28;20105;-72
2021/10/13 09:59:11;;;;;;;13.93;3.33;;;17.90;88.50;;;;;;4200957;28;20109;-73
2021/10/13 10:01:17;;;;;;;12.77;3.55;;;17.90;88.30;;;;;;4228859;28;20439;-73
2021/10/13 10:03:22;;;;;;;10.70;3.15;;;18.00;88.60;;;;;;4206801;28;20052;-72
2021/10/13 10:05:30;;;;;;;15.48;4.68;;;18.00;88.40;;;;;;4212491;28;20059;-75
2021/10/13 10:07:33;;;;;;;12.05;2.83;;;18.00;88.30;;;;;;4216732;28;20047;-74
2021/10/13 10:09:36;;;;;;;18.33;3.97;;;18.00;88.20;;;;;;4219818;28;20455;-74
2021/10/13 10:11:46;;;;;;;15.50;4.20;;;18.00;87.90;;;;;;4212149;28;20055;-73
2021/10/13 10:14:44;;;;;;;17.63;3.72;;;18.00;87.90;;;;;;4223464;28;20047;-73
2021/10/13 10:16:52;;;;;;;19.90;3.80;;;18.00;88.20;;;;;;4212807;28;20059;-72
2021/10/13 10:19:17;;;;;;;17.02;3.80;;;18.00;88.00;;;;;;4221457;28;20055;-74
2021/10/13 10:21:24;;;;;;;12.18;3.58;;;18.00;87.40;;;;;;4226390;28;20060;-74
2021/10/13 10:23:32;;;;;;;15.60;4.13;;;18.00;87.40;;;;;;4227367;28;20060;-74
2021/10/13 10:25:35;;;;;;;9.95;3.28;;;18.00;87.30;;;;;;4226552;28;20040;-73
2021/10/13 10:27:39;;;;;;;10.25;3.42;;;18.00;86.90;;;;;;4211155;28;20107;-72
2021/10/13 10:29:49;;;;;;;10.90;3.17;;;18.00;86.90;;;;;;4230302;28;20335;-74
2021/10/13 10:31:56;;;;;;;11.32;2.92;;;18.00;86.10;;;;;;4226385;28;20115;-73
2021/10/13 10:34:11;;;;;;;15.65;3.40;;;18.00;85.70;;;;;;4224835;28;20050;-74
2021/10/13 10:36:19;;;;;;;11.93;3.05;;;18.00;86.10;;;;;;4212687;28;20113;-73
2021/10/13 10:38:22;;;;;;;23.98;5.63;;;18.00;86.00;;;;;;4214714;28;20052;-73
2021/10/13 10:40:29;;;;;;;62.85;19.73;;;18.00;85.90;;;;;;4221027;28;20124;-73
2021/10/13 10:42:50;;;;;;;74.18;28.58;;;18.00;86.50;;;;;;4211959;28;20466;-72
2021/10/13 10:45:10;;;;;;;79.07;38.85;;;18.00;87.50;;;;;;4223606;28;20067;-73
2021/10/13 10:47:14;;;;;;;61.28;28.38;;;18.00;88.80;;;;;;4211967;28;20412;-73
2021/10/13 10:49:58;;;;;;;54.50;24.52;;;18.00;89.90;;;;;;4217015;28;20048;-74
2021/10/13 10:52:07;;;;;;;31.83;14.30;;;18.10;90.40;;;;;;4192358;28;20057;-74
2021/10/13 10:54:34;;;;;;;30.17;11.13;;;18.10;88.30;;;;;;4198380;28;20052;-75
2021/10/13 10:56:43;;;;;;;34.85;10.25;;;18.20;87.60;;;;;;4225104;28;20048;-73
2021/10/13 10:59:06;;;;;;;21.42;7.38;;;18.20;86.70;;;;;;4227185;28;20047;-73
2021/10/13 11:01:13;;;;;;;18.63;6.57;;;18.20;85.90;;;;;;4221135;28;20075;-73